Latest Observation

67 Stations

10 Minute Data
as of 5/9/26 5:58 AM PDT
Station Date Time Temp (°F) RH (%) Dew Pt (°F) Wind Spd (mph) Wind Dir (°) Wind Gust (mph) Wind Gst Dir (°) Latest Rain (In) Soil Moist (%) Soil Temp (°F) Daily Rain (In) Daily Min Temp (°F) Daily Max Temp (°F) Daily Max Wind (mph)
Hobart Mills 5/9/26 0550 37.0   8.0 97   13 36.3   11.5 1.7   0.4 WSW | 255 2.7   0.1 W | 275 0.00 - 32.0   0.0 0.03 28.9   0.0 70.6   1.0 8.6   0.4
Prosser Dam 5/9/26 0550 37.3   7.9 98   1 36.7   8.2 1.9   1.8 WNW | 286 2.9   2.1 NW | 304 0.00 22.3   1.0 52.4   0.9 0.00 36.5   7.8 43.9   5.2 4.5   0.4
West Incline Village 5/9/26 0550 46.5   1.8 65   27 35.2   15.3 2.7   0.7 NNE | 30 3.7   0.1 NE | 37 0.00 32.5   0.7 47.0   0.5 0.00 46.0   3.5 51.2   3.0 4.3   0.1
Incline Village (Fairview Blvd) 5/9/26 0550 47.3   2.5 54   2 31.6   1.5 0.1   0.1 NE | 54 2.0   2.0 NE | 46 0.00 26.1   0.3 53.5   1.2 0.00 46.9   2.4 51.4   0.4 2.7   0.0
Incline Village (Diamond Peak) 5/9/26 0550 52.3   7.6 38   15 27.5   1.1 6.0   6.0 ENE | 74 10.7   10.7 ENE | 62 0.00 9.3   0.2 49.8   1.1 0.00 49.7   5.1 52.3   3.1 10.7   8.4
Incline Village (Mill Creek) 5/9/26 0550 46.4   4.7 69   1 36.7   5.0 0.0   0.1 N | 0 0.0   1.4 ESE | 112 0.00 11.0   0.2 47.6   0.6 0.00 46.0   4.6 50.0   4.3 2.5   0.2
Incline Village (Lakeshore Blvd) 5/9/26 0550 39.8   5.2 85   10 35.6   8.2 1.4   0.2 NNE | 20 4.5   2.1 NE | 54 0.00 31.4   0.8 52.6   1.1 0.00 39.5   5.2 44.0   1.8 5.1   1.7
Glenbrook 5/9/26 0550 41.4   3.1 87   2 37.8   3.6 0.0   0.9 N | 0 0.0   3.4 SE | 132 0.00 44.3   0.0 46.3   0.2 0.00 41.0   3.3 45.9   3.2 3.1   0.5
Zephyr Cove 5/9/26 0540 43.8   3.2 75   8 36.4   6.0 0.0   0.0 N | 0 0.0   0.0 N | 1 0.00 - 34.3   0.0 0.00 43.7   3.3 50.2   3.8 0.6   0.4
Kingsbury Grade 5/9/26 0550 48.6   11.9 60   21 35.2   3.9 1.7   0.8 ENE | 66 6.1   2.2 ENE | 75 0.00 6.7   0.3 55.3   1.4 0.00 42.9   6.3 50.3   8.4 6.1   1.6
South Daggett Pass (Ridge) 5/9/26 0550 50.2   7.3 53   8 33.7   3.3 4.4   3.0 SE | 140 9.6   4.5 SE | 142 0.00 6.7   0.1 50.3   0.8 0.00 49.3   8.2 54.6   9.5 14.9   5.0
Palomino Valley 5/9/26 0550 45.9   0.4 60   3 32.9   1.6 2.0   1.7 ESE | 120 4.3   1.7 ENE | 69 0.00 7.1   0.0 69.1   1.6 0.00 43.4   0.8 57.5   2.8 8.6   1.4
East Cold Springs 5/9/26 0550 53.9   7.4 44   6 32.3   3.5 4.0   2.9 NW | 323 5.3   3.5 NW | 321 0.00 1.8   0.1 59.0   0.5 0.00 50.5   5.4 57.2   3.5 11.4   6.1
Peavine 5/9/26 0550 46.5   1.9 54   26 30.6   13.9 6.2   2.2 SSW | 210 8.8   1.9 SSW | 212 0.00 - 53.4   0.0 0.00 46.0   0.0 57.3   2.3 8.8   0.6
West Verdi Peak 5/9/26 0550 49.8   1.2 50   16 32.0   10.3 0.0   1.2 NW | 317 0.7   2.5 NW | 317 0.00 19.6   1.2 55.2   0.7 0.00 48.8   1.1 55.0   0.4 6.0   7.1
West Verdi 5/9/26 0550 46.0   3.0 71   13 37.0   8.0 0.3   3.1 NNW | 333 1.6   4.1 NNW | 334 0.00 8.0   0.1 65.0   1.3 0.00 45.5   2.9 55.5   0.0 7.7   0.1
South Verdi 5/9/26 0550 52.6   7.6 48   1 33.4   7.5 5.6   5.4 WSW | 248 7.1   6.3 WSW | 248 0.00 16.3   0.1 61.5   1.7 0.00 51.7   8.5 60.2   2.6 12.9   14.2
Northwest Reno 5/9/26 0550 56.4   5.7 41   5 33.1   8.5 0.6   0.4 NW | 316 2.2   1.2 N | 351 0.00 24.1   0.1 66.3   1.3 0.00 56.1   6.0 63.7   0.6 17.5   10.4
North Lawton 5/9/26 0550 49.4   0.8 63   23 37.2   11.9 7.5   1.8 WSW | 258 9.8   1.2 WSW | 246 0.00 - 60.4   21.3 0.00 48.9   0.5 57.8   0.2 11.4   5.8
West Reno (Mogul) 5/9/26 0550 53.4   1.9 49   16 34.6   11.3 4.9   3.1 SW | 233 7.0   2.0 WSW | 246 0.00 36.7   0.6 63.6   1.0 0.00 49.6   0.5 62.6   5.5 11.3   3.8
Caughlin (Hunter Lake Trail) 9/16/25 0800 59.7   3.5 41   11 35.9   2.7 0.0   0.0 N | 0 0.0   0.0 ENE | 66 0.00 15.7   0.0 69.8   0.5 0.00 55.7   3.2 67.7   9.1 9.4   0.9
ArrowCreek 5/9/26 0550 52.3   5.4 52   5 35.3   7.6 3.9   1.1 S | 191 6.3   1.6 S | 184 0.00 - 32.0   0.0 0.00 51.1   4.9 60.8   1.9 9.2   3.1
Tracy 5/9/26 0550 54.6   2.8 56   14 39.2   9.9 3.1   4.3 WNW | 289 6.2   3.9 W | 268 0.00 8.1   0.1 68.8   1.3 0.00 53.5   1.9 66.4   3.6 8.9   6.7
Virginia Highlands 5/9/26 0550 54.1   3.3 45   14 33.3   11.8 3.9   3.6 W | 269 5.5   3.6 W | 264 0.00 8.1   0.2 59.0   1.0 0.00 53.6   4.2 58.8   3.5 7.5   2.0
Virginia City 5/9/26 0550 54.6   1.3 38   20 29.2   16.5 0.5   8.1 NNW | 341 3.0   11.4 NNE | 20 0.00 8.4   0.0 59.5   1.9 0.00 54.3   0.7 60.8   3.2 27.1   8.3
Six Mile Canyon 9/9/25 0630 60.2   9.6 37   6 33.7   4.8 4.1   2.5 W | 277 6.1   2.9 WNW | 286 0.00 12.5   0.0 75.5   0.7 0.00 57.9   7.6 64.4   1.9 7.0   3.9
Mt Rose Highway 4/30/26 0510 40.8   4.7 47   13 22.3   1.3 2.3   0.2 WSW | 243 4.8   2.1 WSW | 246 0.00 24.1   0.3 43.0   0.8 0.00 40.5   4.7 43.0   5.3 7.7   0.4
Pleasant Valley 5/9/26 0550 48.8   6.4 57   6 34.4   8.8 0.8   0.7 WSW | 254 2.6   0.6 WNW | 284 0.00 2.8   0.0 66.0   1.8 0.00 47.6   6.6 55.0   3.1 6.2   4.2
New Washoe City 5/9/26 0550 48.3   1.3 61   17 35.5   9.1 4.1   1.4 NE | 36 7.0   1.1 NNE | 29 0.00 4.5   0.0 63.2   0.9 0.00 48.1   2.2 56.1   0.2 10.2   2.1
Franktown Creek 5/9/26 0550 46.0   0.2 70   27 37.0   12.4 1.3   1.3 NW | 312 3.1   3.1 NW | 306 0.00 11.1   0.0 58.9   1.1 0.00 45.4   0.7 52.8   2.7 4.5   1.2
Musgrove Creek 5/9/26 0550 53.7   0.1 51   24 35.9   15.1 0.5   3.0 WSW | 245 2.1   3.5 W | 259 0.00 41.7   3.2 54.9   0.5 0.00 52.7   0.8 59.8   0.5 3.4   9.6
East Carson 11/23/24 0110 28.6   28.4 - - 4.7   11.0 SW | 220 14.7   10.1 SW | 219 0.02 - 50.9   0.1 0.02 -25.9   79.1 42.9   14.6 16.0   10.7
Kings Canyon 5/9/26 0550 48.0   1.6 61   19 35.1   10.5 3.8   0.6 S | 182 5.6   0.6 SSE | 168 0.00 14.5   0.4 59.9   1.1 0.00 47.3   3.9 54.3   3.8 7.8   0.2
Carson City (Voltaire Canyon) 5/9/26 0550 54.3   0.3 54   13 38.2   6.3 4.4   1.5 SSW | 198 8.9   0.1 S | 189 0.00 2.8   0.0 63.8   1.4 0.00 54.0   0.7 62.9   3.5 8.9   10.1
Jacks Valley 5/9/26 0550 48.7   1.3 60   1 35.4   1.6 2.2   0.2 WSW | 245 4.7   2.5 WSW | 258 0.00 13.4   0.3 65.6   2.2 0.00 47.8   1.3 58.5   1.0 4.7   5.6
Genoa 5/9/26 0550 48.9   2.9 65   6 37.5   5.3 0.0   0.4 N | 0 0.0   2.5 SSE | 163 0.00 7.0   0.8 57.8   2.4 0.00 47.9   3.2 58.8   4.0 3.2   0.7
South Genoa (Walleys Hot Springs) 5/9/26 0550 43.7   1.7 82   1 38.5   1.2 0.0   0.0 WSW | 238 0.7   2.6 WSW | 239 0.00 14.7   0.7 66.0   1.3 0.00 43.4   2.1 55.0   2.2 6.3   3.5
SW Gardnerville (HWY 88) 5/9/26 0550 43.7   3.3 79   8 37.5   6.0 1.0   2.5 E | 79 3.6   3.0 E | 88 0.00 3.5   0.0 61.2   1.0 0.00 42.8   4.1 51.9   0.6 7.5   0.9
Sheridan 5/9/26 0550 50.0   3.5 61   7 36.9   6.2 0.4   0.8 WNW | 293 1.2   2.6 NW | 305 0.00 3.9   0.7 63.3   1.4 0.00 45.7   2.8 57.0   0.7 6.7   0.2
Ruhenstroth 5/9/26 0550 48.3   4.2 64   6 36.8   6.4 1.5   0.4 SSW | 192 3.0   1.5 SSW | 202 0.00 12.5   0.2 62.3   1.1 0.00 45.6   2.6 55.2   1.9 7.0   1.2
Double Spring 5/9/26 0550 42.8   5.5 71   23 34.2   4.6 4.2   1.3 NW | 319 7.1   0.7 NW | 320 0.00 31.3   0.1 60.1   2.0 0.00 40.8   2.0 49.5   1.7 7.1   2.1
North Topaz Lake 5/9/26 0550 55.6   2.4 44   16 34.0   9.1 2.8   3.9 W | 261 4.1   5.6 WSW | 256 0.00 9.4   0.1 59.8   2.8 0.00 54.4   3.3 61.0   0.7 6.5   9.9
Wild Oat Mountain 5/9/26 0550 55.2   0.8 43   22 33.2   16.6 2.8   2.3 NW | 323 3.7   1.9 NNW | 327 0.00 16.9   0.1 61.8   1.3 0.00 53.6   1.6 61.5   2.1 9.9   0.9
Smith Valley 5/9/26 0550 50.1   0.4 56   9 35.0   4.5 1.8   0.5 N | 1 4.3   0.4 WNW | 291 0.00 5.9   0.0 66.1   1.8 0.00 49.0   2.9 63.4   3.8 9.4   2.7
Pine Grove Mountain 5/9/26 0550 47.4   0.5 39   19 23.7   15.4 5.2   5.3 NNE | 30 10.2   4.4 NNE | 30 0.00 20.6   0.7 53.7   2.4 0.00 47.3   0.4 53.2   1.4 12.3   7.1
Paradise Hill 5/9/26 0550 48.9   3.5 34   9 21.8   2.4 0.5   3.7 NE | 47 4.1   1.5 NE | 55 0.00 8.0   0.1 62.8   0.2 0.00 42.2   0.2 59.5   5.4 7.5   5.1
Winnemucca 5/9/26 0550 51.5   2.2 29   9 20.6   8.2 5.9   0.7 NE | 53 8.1   0.5 NE | 47 0.00 6.0   0.0 62.6   0.3 0.00 51.4   0.5 61.4   3.6 8.8   2.1
NE Elko 5/9/26 0550 34.9   0.6 54   16 19.9   5.4 0.0   2.0 N | 0 0.0   4.8 N | 354 0.00 12.5   0.1 60.0   1.4 0.00 34.4   0.6 56.7   11.3 8.6   1.9
North Elko 5/9/26 0550 50.5   2.4 34   2 23.2   3.2 10.1   9.5 NNW | 342 12.4   10.2 N | 350 0.00 28.6   0.1 60.1   1.7 0.00 46.5   2.9 58.2   0.6 13.4   7.3
South Elko 5/9/26 0550 51.8   20.6 29   16 20.4   29.3 3.7   0.9 NNE | 25 5.2   1.5 NNE | 24 0.00 18.3   0.1 58.9   1.3 0.00 50.5   2.9 97.6   6.1 10.8   4.5
Lamoille 1/28/26 1720 33.2   0.5 65   17 22.8   6.3 5.8   1.5 SSE | 166 7.7   1.9 SE | 139 0.00 12.2   0.0 33.4   0.1 0.02 23.5   2.0 36.5   5.9 25.6   17.4
Reid Gardner Sub 5/9/26 0550 58.4   1.2 33   1 29.6   1.4 1.9   0.3 W | 268 3.8   0.9 SSW | 196 0.00 25.6   0.2 76.0   1.1 0.00 56.1   0.6 74.7   3.5 10.1   3.2
Corn Creek 5/9/26 0550 77.3   2.1 16   2 28.2   1.6 10.5   2.2 WSW | 246 15.4   4.6 WSW | 250 0.00 3.9   0.0 80.2   2.6 0.00 74.4   3.2 80.0   2.2 15.8   2.7
Lucky Strike 5/9/26 0550 66.5   4.7 20   3 24.1   0.5 1.8   8.0 WSW | 243 5.0   8.6 WSW | 239 0.00 4.5   0.0 72.6   2.4 0.00 65.8   3.4 73.0   0.1 16.4   4.5
Lower Angel Peak 5/9/26 0550 57.1   1.8 26   0 22.7   1.9 6.0   0.5 SSW | 195 7.9   0.7 SSW | 201 0.00 9.8   0.3 60.7   2.4 0.00 55.0   1.8 63.8   0.8 9.6   0.6
Angel Peak 5/9/26 0550 56.7   3.0 23   4 19.6   1.5 0.4   8.3 N | 359 2.1   10.7 N | 0 0.00 4.0   0.5 56.4   2.2 0.00 56.2   2.7 58.3   2.5 8.3   24.7
Upper Kyle Canyon 5/9/26 0550 52.0   3.3 32   5 22.7   0.7 4.2   0.6 NNW | 337 7.6   1.4 NNW | 332 0.00 13.2   0.2 60.4   2.1 0.00 51.7   3.5 56.4   1.1 9.7   1.1
Mt Charleston 5/9/26 0550 56.8   2.3 28   1 23.9   1.0 4.6   0.2 W | 275 8.9   0.5 WNW | 288 0.00 18.2   0.0 51.5   1.2 0.00 55.6   3.7 60.9   0.0 9.4   2.7
Mid Kyle Canyon 5/9/26 0550 58.8   1.7 28   1 25.6   0.3 13.2   2.4 WNW | 298 18.8   1.0 WNW | 302 0.00 7.0   0.0 64.0   2.3 0.00 57.7   1.3 61.8   0.1 20.5   0.0
Blue Diamond 5/9/26 0550 74.5   0.6 18   1 28.8   0.5 1.3   0.2 E | 97 3.0   0.6 NNE | 19 0.00 3.0   0.0 73.8   2.0 0.00 73.4   1.2 83.3   1.9 19.1   2.6
Artesian Sub 5/9/26 0550 75.5   4.5 20   4 31.4   0.9 0.7   0.7 SW | 231 2.4   2.4 SW | 222 0.00 13.2   0.1 75.6   0.8 0.00 74.8   4.3 84.9   7.4 6.2   1.4
North Henderson 5/9/26 0550 80.8 22 38.0 4.5 W | 279 8.8 WNW | 292 0.00 9.8 82.8 0.00 80.6 89.5 15.2
Sandy Valley 5/9/26 0550 70.6   1.0 27   3 34.9   1.9 1.0   8.0 NNW | 343 3.8   6.8 NW | 325 0.00 4.5   0.0 82.7   2.5 0.00 70.5   1.3 81.8   3.0 12.8   1.4
Searchlight 5/9/26 0600 72.0   1.9 25   1 34.3   0.7 7.4   0.3 NNE | 20 9.2   2.1 NNE | 15 0.00 4.8   0.1 79.8   3.3 0.00 69.9   1.4 77.4   2.5 12.4   2.4
Laughlin 5/9/26 0550 83.2   8.0 21   2 39.3   9.5 2.8   0.4 SW | 222 4.1   0.1 SSW | 207 0.00 4.2   0.0 87.0   2.6 0.00 83.0   9.4 91.4   6.6 10.3   1.9
31Mission Hills 5/9/26 0550 75.9   0.3 19   2 30.3   2.2 0.7   0.9 NNW | 346 2.4   2.1 N | 351 0.00 3.7   0.1 82.9   3.2 0.00 75.6   0.6 87.5   7.0 11.9   3.6
32 Enterprise Sierra Cliffs 5/9/26 0550 77.3   1.2 14   1 24.0   2.5 2.3   0.2 SW | 218 5.0   0.6 SW | 214 0.00 2.2   0.0 77.8   2.4 0.00 75.8   2.8 84.2   1.9 18.4   5.3
Max     83.2 98 39.3 13.2 - 18.8 - 0.00 44.3 87.0 0.03 83.0 97.6 27.1
Avg     53.6 49 32.0 2.9 - 5.2 - 0.00 13.2 61.4 - - - -
Min     34.9 14 19.6 0.0 - 0.0 - 0.00 1.8 32.0 0.00 28.9 43.9 0.6